Time;durP1;ratioP1;P1;durP2;ratioP2;P2;SDS_P1;SDS_P2;PMS_P1;PMS_P2;Temp;Humidity;BMP_temperature;BMP_pressure;BME280_temperature;BME280_humidity;BME280_pressure;Samples;Min_cycle;Max_cycle;Signal;HPM_P1;HPM_P2
2021/09/20 00:00:34;;;;;;;2.05;1.30;;;;;;;20.17;70.51;100751.63;4975977;28;102374;-48
2021/09/20 00:03:01;;;;;;;1.30;1.20;;;;;;;20.16;70.56;100744.50;4988245;28;102346;-49
2021/09/20 00:05:30;;;;;;;1.20;1.10;;;;;;;20.16;70.23;100752.78;4983102;28;104240;-48
2021/09/20 00:07:56;;;;;;;1.30;1.00;;;;;;;20.15;70.36;100754.72;4987396;28;102813;-48
2021/09/20 00:10:23;;;;;;;1.33;0.93;;;;;;;20.15;70.55;100754.72;4987158;28;102588;-48
2021/09/20 00:12:52;;;;;;;1.77;1.10;;;;;;;20.16;70.52;100769.38;4978908;28;102605;-48
2021/09/20 00:15:18;;;;;;;1.40;1.10;;;;;;;20.16;70.43;100769.38;4982990;28;104039;-49
2021/09/20 00:17:45;;;;;;;1.48;1.15;;;;;;;20.15;70.34;100760.25;4979890;28;102118;-48
2021/09/20 00:20:13;;;;;;;1.20;1.10;;;;;;;20.16;70.23;100766.59;4983010;28;102118;-48
2021/09/20 00:22:44;;;;;;;1.23;1.00;;;;;;;20.15;70.51;100757.47;4987492;28;102298;-49
2021/09/20 00:25:13;;;;;;;1.40;0.98;;;;;;;20.16;70.33;100761.06;4985289;28;103687;-50
2021/09/20 00:27:39;;;;;;;1.40;1.05;;;;;;;20.16;70.45;100769.38;4988784;28;102503;-48
2021/09/20 00:30:09;;;;;;;1.03;0.93;;;;;;;20.14;70.58;100764.16;4988825;28;102080;-48
2021/09/20 00:32:36;;;;;;;1.42;0.98;;;;;;;20.14;70.59;100766.09;4988657;28;102349;-49
2021/09/20 00:35:03;;;;;;;1.70;1.15;;;;;;;20.16;70.23;100783.19;4988918;28;103320;-49
2021/09/20 00:37:29;;;;;;;1.30;1.00;;;;;;;20.14;70.35;100777.97;4988328;28;102183;-48
2021/09/20 00:39:57;;;;;;;1.10;1.00;;;;;;;20.14;70.62;100775.19;4988278;28;102476;-47
2021/09/20 00:42:26;;;;;;;1.52;1.08;;;;;;;20.14;70.37;100768.88;4988047;28;102426;-48
2021/09/20 00:44:57;;;;;;;0.90;0.90;;;;;;;20.13;70.27;100764.50;4983310;28;103957;-48
2021/09/20 00:47:25;;;;;;;2.30;1.33;;;;;;;20.14;70.58;100763.34;4981915;28;102413;-48
2021/09/20 00:49:52;;;;;;;0.95;0.82;;;;;;;20.14;70.35;100768.88;4986715;28;102348;-48
2021/09/20 00:52:18;;;;;;;1.23;0.93;;;;;;;20.14;70.24;100763.34;4988594;28;102744;-47
2021/09/20 00:54:45;;;;;;;0.80;0.80;;;;;;;20.13;70.47;100757.03;4987398;28;103894;-49
2021/09/20 00:57:14;;;;;;;1.55;1.00;;;;;;;20.13;70.38;100761.75;4986421;28;102740;-49
2021/09/20 00:59:41;;;;;;;1.00;0.80;;;;;;;20.13;70.37;100767.25;4983752;28;102231;-49
2021/09/20 01:02:07;;;;;;;0.90;0.80;;;;;;;20.13;70.22;100761.75;4988661;28;102707;-49
2021/09/20 01:04:34;;;;;;;0.98;0.80;;;;;;;20.14;70.46;100757.81;4986704;28;103913;-49
2021/09/20 01:07:02;;;;;;;0.80;0.80;;;;;;;20.13;70.58;100751.50;4987814;28;102780;-49
2021/09/20 01:09:29;;;;;;;1.08;0.98;;;;;;;20.13;70.27;100756.22;4987601;28;102385;-49
2021/09/20 01:11:56;;;;;;;1.27;1.20;;;;;;;20.12;70.15;100749.88;4986460;28;102455;-48
2021/09/20 01:14:24;;;;;;;1.30;0.90;;;;;;;20.13;70.36;100761.75;4986791;28;103822;-49
2021/09/20 01:16:54;;;;;;;1.10;0.82;;;;;;;20.13;70.57;100756.22;4988671;28;102480;-49
2021/09/20 01:19:21;;;;;;;0.65;0.65;;;;;;;20.12;70.27;100755.41;4987482;28;102277;-49
2021/09/20 01:21:48;;;;;;;2.45;0.90;;;;;;;20.13;70.27;100759.78;4987986;28;102650;-49
2021/09/20 01:24:16;;;;;;;0.98;0.75;;;;;;;20.11;70.45;100748.25;4968458;28;104250;-49
2021/09/20 01:26:42;;;;;;;0.90;0.90;;;;;;;20.12;70.24;100749.03;4985432;28;102445;-48
2021/09/20 01:29:09;;;;;;;0.80;0.70;;;;;;;20.13;70.51;100753.44;4978142;28;102896;-49
2021/09/20 01:31:38;;;;;;;1.63;1.00;;;;;;;20.12;70.33;100746.28;4988012;28;102284;-49
2021/09/20 01:34:05;;;;;;;0.90;0.77;;;;;;;20.13;70.28;100750.69;4986892;28;103567;-48
2021/09/20 01:36:31;;;;;;;1.00;0.75;;;;;;;20.11;70.41;100747.44;4983471;28;102586;-48
2021/09/20 01:38:58;;;;;;;0.80;0.75;;;;;;;20.11;70.31;100742.72;4987581;28;102423;-50
2021/09/20 01:41:32;;;;;;;1.27;1.00;;;;;;;20.11;70.34;100745.47;4990150;28;102712;-49
2021/09/20 01:43:59;;;;;;;0.85;0.65;;;;;;;20.11;70.28;100748.25;4985496;28;109283;-49
2021/09/20 01:46:25;;;;;;;0.88;0.70;;;;;;;20.11;70.28;100747.44;4987471;28;102040;-49
2021/09/20 01:48:52;;;;;;;1.10;1.00;;;;;;;20.10;70.52;100751.34;4990994;28;102392;-48
2021/09/20 01:51:18;;;;;;;0.90;0.85;;;;;;;20.11;70.11;100753.75;4982782;28;102257;-50
2021/09/20 01:53:45;;;;;;;0.88;0.80;;;;;;;20.11;70.29;100747.44;4990994;28;103865;-48
2021/09/20 01:56:11;;;;;;;2.70;1.02;;;;;;;20.11;70.23;100752.97;4986916;28;102628;-48
2021/09/20 01:58:39;;;;;;;1.08;0.82;;;;;;;20.10;70.24;100756.88;4978357;28;102642;-48
2021/09/20 02:01:06;;;;;;;0.77;0.77;;;;;;;20.11;70.29;100769.53;4990163;28;102921;-48
2021/09/20 02:03:32;;;;;;;1.00;0.80;;;;;;;20.11;70.23;100764.00;4989336;28;103977;-49
2021/09/20 02:05:59;;;;;;;1.20;0.75;;;;;;;20.11;70.07;100767.59;4981140;28;102137;-50
2021/09/20 02:08:25;;;;;;;1.10;0.70;;;;;;;20.10;70.36;100765.97;4986731;28;102714;-50
2021/09/20 02:10:52;;;;;;;0.90;0.70;;;;;;;20.10;70.55;100767.94;4982684;28;102788;-48
2021/09/20 02:13:19;;;;;;;1.35;0.85;;;;;;;20.10;70.25;100774.25;4983292;28;103329;-49
2021/09/20 02:15:55;;;;;;;0.93;0.70;;;;;;;20.10;70.14;100770.69;4988097;28;102201;-50
2021/09/20 02:18:21;;;;;;;0.85;0.70;;;;;;;20.10;70.41;100762.41;4981195;28;102463;-49
2021/09/20 02:20:48;;;;;;;1.10;0.88;;;;;;;20.10;70.22;100751.34;4986356;28;102112;-48
2021/09/20 02:23:15;;;;;;;0.82;0.70;;;;;;;20.09;70.06;100750.53;4988636;28;103813;-49
2021/09/20 02:25:43;;;;;;;2.15;0.70;;;;;;;20.09;70.13;100755.28;4990919;28;102514;-50
2021/09/20 02:28:10;;;;;;;0.98;0.88;;;;;;;20.09;70.36;100756.06;4987878;28;102138;-50
2021/09/20 02:30:36;;;;;;;0.80;0.80;;;;;;;20.09;70.14;100753.31;4989907;28;102578;-49
2021/09/20 02:33:04;;;;;;;1.15;0.75;;;;;;;20.09;70.27;100744.22;4988538;28;104253;-49
2021/09/20 02:35:31;;;;;;;1.13;0.80;;;;;;;20.09;70.33;100745.03;4988751;28;102555;-48
2021/09/20 02:37:58;;;;;;;0.98;0.88;;;;;;;20.09;70.16;100758.03;4989789;28;102472;-48
2021/09/20 02:40:25;;;;;;;1.05;0.90;;;;;;;20.08;70.27;100746.13;4989949;28;102321;-49
2021/09/20 02:42:51;;;;;;;1.52;0.85;;;;;;;20.09;70.23;100755.28;4987908;28;103921;-50
2021/09/20 02:45:18;;;;;;;1.50;0.80;;;;;;;20.08;70.14;100750.88;4988803;28;102253;-48
2021/09/20 02:47:45;;;;;;;1.65;0.98;;;;;;;20.09;70.54;100752.50;4987754;28;102765;-48
2021/09/20 02:50:32;;;;;;;1.00;0.70;;;;;;;20.08;70.22;100753.63;4989770;28;102435;-49
2021/09/20 02:52:59;;;;;;;0.82;0.75;;;;;;;20.07;70.38;100752.00;4977063;28;104809;-48
2021/09/20 02:55:26;;;;;;;0.85;0.85;;;;;;;20.07;70.21;100758.34;4977691;28;102551;-48
2021/09/20 02:57:55;;;;;;;1.85;1.15;;;;;;;20.07;70.26;100765.81;4981482;28;102166;-48
2021/09/20 03:00:21;;;;;;;0.93;0.93;;;;;;;20.07;70.19;100774.91;4984919;28;102516;-48
2021/09/20 03:02:47;;;;;;;0.80;0.80;;;;;;;20.08;69.99;100764.69;4978332;28;103969;-48
2021/09/20 03:05:14;;;;;;;0.93;0.80;;;;;;;20.07;70.26;100766.63;4989805;28;102651;-48
2021/09/20 03:07:42;;;;;;;1.30;1.00;;;;;;;20.07;70.15;100765.81;4987866;28;102413;-49
2021/09/20 03:10:29;;;;;;;1.08;1.00;;;;;;;20.07;70.63;100769.41;4985287;28;102400;-49
2021/09/20 03:12:55;;;;;;;1.10;0.90;;;;;;;20.07;70.21;100771.34;4983873;28;102661;-49
2021/09/20 03:15:22;;;;;;;1.42;1.10;;;;;;;20.07;70.34;100765.81;4989001;28;102548;-48
2021/09/20 03:17:50;;;;;;;1.00;0.88;;;;;;;20.07;70.28;100771.34;4988308;28;102446;-50
2021/09/20 03:20:17;;;;;;;1.52;0.93;;;;;;;20.06;70.23;100776.06;4988157;28;102884;-49
2021/09/20 03:22:45;;;;;;;1.52;1.20;;;;;;;20.06;70.14;100778.03;4982030;28;103880;-50
2021/09/20 03:25:13;;;;;;;0.80;0.80;;;;;;;20.06;70.11;100778.03;4978038;28;102358;-48
2021/09/20 03:27:40;;;;;;;1.07;0.90;;;;;;;20.05;70.31;100768.09;4978002;28;102268;-48
2021/09/20 03:30:09;;;;;;;1.23;1.00;;;;;;;20.06;70.40;100786.31;4990297;28;102433;-49
2021/09/20 03:32:36;;;;;;;2.63;1.48;;;;;;;20.05;70.03;100784.69;4986717;28;103872;-49
2021/09/20 03:35:03;;;;;;;1.10;1.00;;;;;;;20.05;70.38;100799.31;4986284;28;102351;-49
2021/09/20 03:37:30;;;;;;;1.60;1.05;;;;;;;20.04;70.01;100797.69;4988009;28;102193;-50
2021/09/20 03:39:58;;;;;;;1.98;1.20;;;;;;;20.04;70.10;100803.22;4976506;28;102250;-50
2021/09/20 03:42:25;;;;;;;1.17;1.07;;;;;;;20.04;70.27;100802.41;4988227;28;109225;-50
2021/09/20 03:44:52;;;;;;;1.35;1.10;;;;;;;20.05;69.95;100801.25;4986825;28;103192;-49
2021/09/20 03:47:18;;;;;;;1.20;1.10;;;;;;;20.04;69.91;100785.84;4990095;28;102565;-49
2021/09/20 03:49:45;;;;;;;1.10;1.00;;;;;;;20.04;69.99;100786.63;4990440;28;102880;-51
2021/09/20 03:52:12;;;;;;;1.20;1.10;;;;;;;20.04;70.09;100788.59;4983978;28;104055;-50
2021/09/20 03:54:38;;;;;;;1.20;1.10;;;;;;;20.04;69.92;100788.59;4993758;28;106795;-49
2021/09/20 03:57:07;;;;;;;1.73;1.13;;;;;;;20.02;69.91;100800.00;5001775;28;101517;-51
2021/09/20 03:59:34;;;;;;;1.30;1.20;;;;;;;20.04;70.12;100802.41;5002451;28;102117;-51
2021/09/20 04:02:02;;;;;;;1.00;0.90;;;;;;;20.03;70.05;100789.75;5000836;28;103699;-50
2021/09/20 04:04:29;;;;;;;1.17;1.05;;;;;;;20.02;70.14;100797.22;4983816;28;102120;-49
2021/09/20 04:06:55;;;;;;;1.45;0.90;;;;;;;20.03;70.22;100801.59;4980811;28;102167;-48
2021/09/20 04:09:23;;;;;;;1.05;0.98;;;;;;;20.02;69.96;100804.72;4976417;28;103422;-50
2021/09/20 04:11:50;;;;;;;1.20;1.10;;;;;;;20.03;70.22;100812.66;4987755;28;104128;-49
2021/09/20 04:14:21;;;;;;;1.20;1.10;;;;;;;20.03;70.17;100811.84;4993313;28;102425;-48
2021/09/20 04:16:57;;;;;;;1.10;1.00;;;;;;;20.01;69.91;100803.88;4976017;28;102534;-48
2021/09/20 04:19:24;;;;;;;1.30;1.20;;;;;;;20.02;70.20;100808.28;4990879;28;102135;-49
2021/09/20 04:21:53;;;;;;;1.30;1.20;;;;;;;20.02;70.01;100807.47;4984311;28;103803;-51
2021/09/20 04:24:21;;;;;;;1.10;1.00;;;;;;;20.02;70.21;100810.22;4978546;28;102613;-51
2021/09/20 04:26:47;;;;;;;1.30;1.10;;;;;;;20.02;70.27;100810.22;4988465;28;102579;-48
2021/09/20 04:29:14;;;;;;;1.50;0.98;;;;;;;20.01;70.13;100814.91;4976363;28;102575;-50
2021/09/20 04:31:42;;;;;;;1.10;1.00;;;;;;;20.02;69.95;100818.53;4977402;28;103657;-50
2021/09/20 04:34:08;;;;;;;1.10;1.00;;;;;;;20.01;69.91;100814.13;4989051;28;102347;-50
2021/09/20 04:36:36;;;;;;;1.25;1.15;;;;;;;20.02;70.13;100821.28;4986596;28;102171;-50
2021/09/20 04:39:03;;;;;;;1.42;1.20;;;;;;;20.02;70.04;100830.38;4977910;28;102356;-49
2021/09/20 04:41:29;;;;;;;3.13;1.10;;;;;;;20.02;70.14;100824.03;4986386;28;103892;-49
2021/09/20 04:43:56;;;;;;;4.57;1.30;;;;;;;20.01;70.15;100825.16;4989067;28;102433;-49
2021/09/20 04:46:22;;;;;;;1.58;1.10;;;;;;;20.01;69.95;100836.22;4987522;28;102340;-49
2021/09/20 04:48:52;;;;;;;1.25;1.15;;;;;;;20.00;70.14;100838.16;4984391;28;102244;-49
2021/09/20 04:51:18;;;;;;;1.10;1.00;;;;;;;20.01;70.13;100836.22;4977771;28;103877;-50
2021/09/20 04:53:45;;;;;;;1.15;1.05;;;;;;;20.01;70.14;100833.44;4984559;28;102538;-50
2021/09/20 04:56:13;;;;;;;0.90;0.90;;;;;;;20.01;70.07;100837.03;4984780;28;102573;-49
2021/09/20 04:58:40;;;;;;;;;;;;;;;20.01;70.30;100844.50;4988257;28;102252;-50
2021/09/20 05:01:07;;;;;;;1.42;1.10;;;;;;;20.02;70.14;100840.63;4986753;28;104132;-50
2021/09/20 05:03:33;;;;;;;4.93;1.27;;;;;;;20.01;70.21;100848.06;4981074;28;102567;-49
2021/09/20 05:06:01;;;;;;;1.15;1.00;;;;;;;20.00;70.15;100840.13;4986301;28;102496;-49
2021/09/20 05:08:28;;;;;;;1.77;1.10;;;;;;;20.02;69.93;100846.16;4984631;28;102190;-49
2021/09/20 05:10:55;;;;;;;1.23;1.13;;;;;;;20.02;70.06;100849.72;4983803;28;104347;-48
2021/09/20 05:13:24;;;;;;;2.05;0.98;;;;;;;20.04;70.11;100863.19;5001657;28;103207;-51
2021/09/20 05:15:51;;;;;;;1.00;0.90;;;;;;;20.03;70.10;100861.56;4991712;28;102368;-49
2021/09/20 05:18:19;;;;;;;0.98;0.85;;;;;;;20.04;69.78;100860.41;4992696;28;102862;-49
2021/09/20 05:20:48;;;;;;;1.15;1.05;;;;;;;20.05;70.03;100864.78;4983222;28;104086;-50
2021/09/20 05:23:17;;;;;;;1.27;1.10;;;;;;;20.06;70.11;100863.66;4974713;28;102399;-49
2021/09/20 05:25:44;;;;;;;1.27;0.80;;;;;;;20.06;70.26;100863.66;4987535;28;102535;-49
2021/09/20 05:28:10;;;;;;;1.20;1.05;;;;;;;20.07;70.36;100863.31;4981846;28;102204;-50
2021/09/20 05:30:37;;;;;;;1.10;1.00;;;;;;;20.08;70.22;100858.59;4989643;28;103686;-50
2021/09/20 05:33:04;;;;;;;1.33;1.20;;;;;;;20.09;70.39;100860.25;4994080;28;102483;-50
2021/09/20 05:35:31;;;;;;;1.08;0.85;;;;;;;20.10;70.11;100856.34;4991698;28;102704;-51
2021/09/20 05:37:57;;;;;;;1.20;1.10;;;;;;;20.10;70.06;100864.63;4988174;28;102312;-50
2021/09/20 05:40:25;;;;;;;1.63;1.00;;;;;;;20.12;70.31;100862.31;4989096;28;104654;-48
2021/09/20 05:42:59;;;;;;;2.50;1.20;;;;;;;20.11;70.28;100853.22;4988567;28;102419;-49
2021/09/20 05:45:26;;;;;;;2.90;1.10;;;;;;;20.11;70.20;100857.94;4988872;28;102528;-49
2021/09/20 05:47:54;;;;;;;2.20;1.10;;;;;;;20.12;70.37;100854.03;4986600;28;102197;-48
2021/09/20 05:50:25;;;;;;;1.23;1.00;;;;;;;20.13;70.14;100855.69;4990290;28;104068;-48
2021/09/20 05:52:52;;;;;;;1.30;1.00;;;;;;;20.13;70.42;100855.69;4987651;28;102389;-49
2021/09/20 05:55:18;;;;;;;1.13;1.02;;;;;;;20.14;70.23;100863.63;4990015;28;102249;-48
2021/09/20 05:57:48;;;;;;;0.82;0.82;;;;;;;20.14;70.06;100851.75;4989529;28;102544;-48
2021/09/20 06:00:16;;;;;;;1.10;1.00;;;;;;;20.13;70.31;100850.97;4990167;28;104071;-50
2021/09/20 06:02:43;;;;;;;0.77;0.77;;;;;;;20.14;70.25;100860.84;4991724;28;102161;-50
2021/09/20 06:05:13;;;;;;;1.13;0.93;;;;;;;20.15;70.03;100864.44;4988887;28;102401;-50
2021/09/20 06:07:40;;;;;;;1.10;1.00;;;;;;;20.15;70.37;100861.66;4991733;28;102334;-48
2021/09/20 06:10:08;;;;;;;1.15;0.80;;;;;;;20.15;70.22;100869.94;4988041;28;103730;-49
2021/09/20 06:12:35;;;;;;;0.90;0.90;;;;;;;20.15;70.37;100870.75;4989409;28;102415;-49
2021/09/20 06:15:05;;;;;;;0.70;0.70;;;;;;;20.16;70.27;100877.13;4990028;28;102234;-49
2021/09/20 06:17:35;;;;;;;0.80;0.80;;;;;;;20.15;70.23;100873.53;4992458;28;102729;-50
2021/09/20 06:20:03;;;;;;;0.80;0.80;;;;;;;20.16;70.39;100877.13;4989175;28;103833;-49
2021/09/20 06:22:33;;;;;;;1.00;0.82;;;;;;;20.17;70.35;100873.22;4989343;28;102505;-49
2021/09/20 06:25:00;;;;;;;1.25;1.08;;;;;;;20.18;70.35;100874.81;4990697;28;102135;-48
2021/09/20 06:27:27;;;;;;;1.00;0.90;;;;;;;20.17;70.26;100870.44;4988244;28;102358;-48
2021/09/20 06:29:54;;;;;;;1.30;1.20;;;;;;;20.18;69.96;100874.81;4988702;28;104541;-48
2021/09/20 06:32:22;;;;;;;0.95;0.88;;;;;;;20.18;70.19;100874.81;4983799;28;102185;-49
2021/09/20 06:34:48;;;;;;;1.03;0.93;;;;;;;20.17;69.97;100874.00;4978862;28;102385;-48
2021/09/20 06:37:15;;;;;;;0.80;0.77;;;;;;;20.18;69.94;100880.34;4987118;28;102663;-49
2021/09/20 06:39:42;;;;;;;1.13;1.02;;;;;;;20.20;70.22;100880.03;4975488;28;103954;-49
2021/09/20 06:42:09;;;;;;;0.75;0.75;;;;;;;20.20;70.18;100882.78;4985554;28;102597;-48
2021/09/20 06:44:35;;;;;;;1.00;0.85;;;;;;;20.19;70.34;100876.44;4985363;28;102212;-48
2021/09/20 06:47:02;;;;;;;1.20;0.70;;;;;;;20.21;70.14;100885.22;4989242;28;102564;-49
2021/09/20 06:49:30;;;;;;;0.88;0.88;;;;;;;20.21;70.21;100885.22;4982871;28;105315;-49
2021/09/20 06:51:57;;;;;;;0.87;0.87;;;;;;;20.22;70.29;100880.50;4988794;28;102108;-49
2021/09/20 06:54:24;;;;;;;0.85;0.85;;;;;;;20.22;69.91;100886.81;4988994;28;102113;-50
2021/09/20 06:56:50;;;;;;;0.93;0.93;;;;;;;20.21;69.79;100885.22;4989232;28;103790;-50
2021/09/20 06:59:17;;;;;;;1.13;1.02;;;;;;;20.23;70.15;100880.19;4989208;28;103878;-49
2021/09/20 07:01:44;;;;;;;0.93;0.90;;;;;;;20.23;70.06;100871.88;4988702;28;103806;-49
2021/09/20 07:04:10;;;;;;;0.80;0.70;;;;;;;20.24;69.89;100879.03;4986804;28;102642;-48
2021/09/20 07:06:39;;;;;;;1.15;1.05;;;;;;;20.25;70.11;100863.25;4988633;28;102528;-48
2021/09/20 07:09:06;;;;;;;0.80;0.80;;;;;;;20.25;70.14;100869.59;4990827;28;103740;-50
2021/09/20 07:11:33;;;;;;;1.98;0.70;;;;;;;20.26;70.03;100871.19;4988731;28;102574;-48
2021/09/20 07:13:59;;;;;;;1.10;0.95;;;;;;;20.26;70.05;100865.66;4981006;28;102053;-49
2021/09/20 07:16:26;;;;;;;0.80;0.80;;;;;;;20.27;70.16;100867.31;4985977;28;102906;-49
2021/09/20 07:18:53;;;;;;;0.90;0.80;;;;;;;20.27;70.04;100859.03;4984212;28;103666;-49
2021/09/20 07:21:23;;;;;;;0.90;0.90;;;;;;;20.28;69.96;100851.53;4987933;28;102520;-49
2021/09/20 07:23:54;;;;;;;0.70;0.70;;;;;;;20.28;70.04;100865.34;4989429;28;102540;-49
2021/09/20 07:26:22;;;;;;;0.88;0.80;;;;;;;20.29;70.04;100853.94;4990096;28;102826;-48
2021/09/20 07:28:49;;;;;;;1.05;1.00;;;;;;;20.29;70.08;100858.66;4989465;28;102586;-50
2021/09/20 07:31:16;;;;;;;0.77;0.70;;;;;;;20.30;70.17;100858.34;4989306;28;102732;-49
2021/09/20 07:33:43;;;;;;;0.63;0.60;;;;;;;20.30;70.06;100854.75;4971828;28;103120;-50
2021/09/20 07:36:10;;;;;;;0.80;0.80;;;;;;;20.31;69.85;100856.41;4978532;28;102443;-48
2021/09/20 07:38:38;;;;;;;0.70;0.70;;;;;;;20.32;69.97;100864.34;4984887;28;104073;-48
2021/09/20 07:41:06;;;;;;;0.83;0.80;;;;;;;20.32;69.77;100867.09;4977580;28;102567;-50
2021/09/20 07:43:33;;;;;;;0.57;0.57;;;;;;;20.33;69.82;100877.00;4984271;28;103215;-49
2021/09/20 07:46:02;;;;;;;0.50;0.50;;;;;;;20.33;69.88;100865.94;4986140;28;102153;-47
2021/09/20 07:48:28;;;;;;;0.50;0.45;;;;;;;20.34;69.94;100873.13;4982179;28;104111;-48
2021/09/20 07:50:55;;;;;;;0.55;0.55;;;;;;;20.35;69.83;100873.94;4996068;28;102501;-46
2021/09/20 07:53:22;;;;;;;0.80;0.80;;;;;;;20.35;69.77;100874.75;4976631;28;102486;-47
2021/09/20 07:55:49;;;;;;;0.40;0.40;;;;;;;20.35;69.88;100871.97;4979719;28;102538;-48
2021/09/20 07:58:17;;;;;;;0.60;0.60;;;;;;;20.37;69.92;100872.44;4984590;28;104572;-48
2021/09/20 08:00:44;;;;;;;5.30;0.77;;;;;;;20.38;69.64;100873.28;4984564;28;102702;-48
2021/09/20 08:03:10;;;;;;;0.60;0.60;;;;;;;20.37;69.85;100872.44;4982313;28;104846;-47
2021/09/20 08:05:43;;;;;;;0.80;0.60;;;;;;;20.39;69.93;100867.41;4984969;28;105736;-48
2021/09/20 08:08:09;;;;;;;0.70;0.60;;;;;;;20.40;69.60;100865.44;4984339;28;105259;-47
2021/09/20 08:10:37;;;;;;;0.63;0.60;;;;;;;20.39;69.78;100861.88;4988892;28;102423;-49
2021/09/20 08:13:06;;;;;;;1.38;0.70;;;;;;;20.40;69.87;100865.44;4984880;28;102700;-48
2021/09/20 08:15:34;;;;;;;0.70;0.60;;;;;;;20.42;70.05;100867.88;4984918;28;102871;-48
2021/09/20 08:18:10;;;;;;;0.52;0.52;;;;;;;20.42;69.83;100856.81;4979110;28;103951;-47
2021/09/20 08:20:43;;;;;;;0.63;0.57;;;;;;;20.42;69.81;100848.53;4974480;28;102648;-46
2021/09/20 08:23:12;;;;;;;0.70;0.70;;;;;;;20.42;69.51;100859.59;4985299;28;102463;-46
2021/09/20 08:25:39;;;;;;;0.68;0.55;;;;;;;20.43;69.71;100850.94;4986582;28;102906;-48
2021/09/20 08:28:05;;;;;;;1.25;0.80;;;;;;;20.42;69.56;100851.31;4978851;28;102767;-48
2021/09/20 08:30:34;;;;;;;0.80;0.77;;;;;;;20.42;69.63;100846.56;4986927;28;102620;-48
2021/09/20 08:33:01;;;;;;;0.82;0.82;;;;;;;20.43;69.63;100858.44;4978349;28;102467;-47
2021/09/20 08:35:29;;;;;;;1.20;0.88;;;;;;;20.45;69.73;100869.94;4987758;28;102529;-52
2021/09/20 08:37:56;;;;;;;1.55;1.00;;;;;;;20.43;69.48;100853.72;4980145;28;103688;-50
2021/09/20 08:40:22;;;;;;;0.80;0.75;;;;;;;20.44;69.63;100860.03;4979857;28;102163;-47
2021/09/20 08:42:50;;;;;;;0.95;0.82;;;;;;;20.45;69.43;100853.38;4981820;28;102448;-47
2021/09/20 08:45:19;;;;;;;2.05;1.25;;;;;;;20.45;69.73;100845.06;4988925;28;102497;-49
2021/09/20 08:47:50;;;;;;;2.42;0.88;;;;;;;20.46;69.61;100853.06;4982812;28;103837;-49
2021/09/20 08:50:19;;;;;;;1.52;1.20;;;;;;;20.46;69.43;100846.72;4994807;28;102391;-49
2021/09/20 08:52:48;;;;;;;1.33;1.13;;;;;;;20.46;69.51;100835.66;5004845;28;102035;-48
2021/09/20 08:55:15;;;;;;;1.60;1.02;;;;;;;20.45;69.61;100843.16;4987443;28;103114;-48
2021/09/20 08:57:44;;;;;;;1.27;1.15;;;;;;;20.46;69.59;100846.72;4982950;28;103727;-49
2021/09/20 09:00:12;;;;;;;1.10;0.95;;;;;;;20.47;69.52;100853.84;4987458;28;102589;-48
2021/09/20 09:02:39;;;;;;;1.10;1.00;;;;;;;20.47;69.37;100848.31;4982146;28;102666;-49
2021/09/20 09:05:14;;;;;;;0.77;0.77;;;;;;;20.47;69.62;100859.38;4984858;28;102138;-48
2021/09/20 09:07:43;;;;;;;2.75;1.00;;;;;;;20.47;69.71;100865.72;4979729;28;103914;-48
2021/09/20 09:10:11;;;;;;;0.80;0.80;;;;;;;20.46;69.50;100858.59;4987221;28;102912;-48
2021/09/20 09:12:38;;;;;;;1.10;1.00;;;;;;;20.47;69.58;100864.91;4978940;28;103138;-48
2021/09/20 09:15:07;;;;;;;1.00;0.90;;;;;;;20.47;69.43;100851.09;4982709;28;102776;-47
2021/09/20 09:17:34;;;;;;;;;;;;;;;20.47;69.36;100864.91;4981778;28;104178;-47
2021/09/20 09:20:08;;;;;;;1.00;0.90;;;;;;;20.47;69.61;100865.72;4985312;28;102701;-48
2021/09/20 09:22:43;;;;;;;0.80;0.80;;;;;;;20.47;69.36;100853.84;4990836;28;102264;-48
2021/09/20 09:25:15;;;;;;;1.25;1.00;;;;;;;20.47;69.37;100864.91;4987191;28;102282;-49
2021/09/20 09:27:42;;;;;;;0.80;0.80;;;;;;;20.47;69.46;100857.44;4985709;28;103903;-48
2021/09/20 09:30:19;;;;;;;1.10;1.00;;;;;;;20.48;69.27;100859.03;4974530;28;103293;-48
2021/09/20 09:32:47;;;;;;;1.52;1.30;;;;;;;20.47;69.47;100867.69;4975563;28;102116;-49
2021/09/20 09:35:16;;;;;;;1.10;1.00;;;;;;;20.48;69.27;100858.22;4988037;28;102646;-48
2021/09/20 09:37:46;;;;;;;3.25;1.10;;;;;;;20.47;69.41;100853.84;4979050;28;103899;-49
2021/09/20 09:40:20;;;;;;;1.02;0.80;;;;;;;20.47;69.25;100851.09;4979158;28;102344;-49
2021/09/20 09:42:51;;;;;;;0.95;0.90;;;;;;;20.47;69.38;100851.91;4984333;28;102511;-48
2021/09/20 09:45:22;;;;;;;1.23;1.00;;;;;;;20.47;69.25;100854.66;4980778;28;102891;-48
2021/09/20 09:47:49;;;;;;;0.90;0.80;;;;;;;20.48;69.16;100855.47;4980341;28;103670;-49
2021/09/20 09:50:22;;;;;;;1.00;0.90;;;;;;;20.47;69.38;100865.72;4983566;28;102302;-48
2021/09/20 09:52:53;;;;;;;1.10;0.98;;;;;;;20.48;69.26;100863.75;4981107;28;102337;-49
2021/09/20 09:55:21;;;;;;;1.05;0.80;;;;;;;20.47;69.36;100864.91;4984219;28;102459;-47
2021/09/20 09:57:49;;;;;;;1.15;1.05;;;;;;;20.48;69.17;100855.47;4983551;28;103873;-46
2021/09/20 10:00:18;;;;;;;0.80;0.70;;;;;;;20.47;69.08;100860.19;4991524;28;102243;-47
2021/09/20 10:02:47;;;;;;;1.00;0.90;;;;;;;20.48;69.18;100855.47;4990124;28;102237;-47
2021/09/20 10:05:16;;;;;;;1.38;0.82;;;;;;;20.47;69.14;100854.66;4991437;28;102708;-48
2021/09/20 10:07:45;;;;;;;1.60;0.97;;;;;;;20.47;69.41;100859.38;4984270;28;104051;-49
2021/09/20 10:10:13;;;;;;;;;;;;;;;20.47;69.17;100853.84;4988059;28;102542;-48
2021/09/20 10:12:42;;;;;;;1.23;0.90;;;;;;;20.46;69.46;100853.06;4985426;28;102463;-47
2021/09/20 10:15:12;;;;;;;0.98;0.88;;;;;;;20.47;69.09;100853.84;4979254;28;102408;-47
2021/09/20 10:17:38;;;;;;;0.80;0.80;;;;;;;20.46;69.31;100841.19;4982613;28;103933;-48
2021/09/20 10:20:09;;;;;;;0.85;0.85;;;;;;;20.46;69.31;100838.41;4990352;28;102822;-47
2021/09/20 10:22:36;;;;;;;1.13;1.00;;;;;;;20.46;69.30;100836.47;4979800;28;102633;-48
2021/09/20 10:25:05;;;;;;;0.95;0.85;;;;;;;20.46;69.22;100824.59;4987957;28;102336;-47
2021/09/20 10:27:36;;;;;;;0.90;0.90;;;;;;;20.45;69.20;100834.00;4988314;28;103688;-47
2021/09/20 10:30:08;;;;;;;0.75;0.75;;;;;;;20.45;69.11;100832.09;4991935;28;102435;-47
2021/09/20 10:32:36;;;;;;;1.17;0.90;;;;;;;20.46;69.16;100830.13;4989159;28;102287;-46
2021/09/20 10:35:24;;;;;;;1.00;0.80;;;;;;;20.45;69.31;100834.00;4978897;28;102148;-48
2021/09/20 10:37:51;;;;;;;1.20;0.95;;;;;;;20.45;69.11;100829.31;4971504;28;104004;-47
2021/09/20 10:40:18;;;;;;;0.93;0.80;;;;;;;20.44;69.34;100833.22;4980641;28;102412;-48
2021/09/20 10:42:49;;;;;;;0.93;0.90;;;;;;;20.44;69.21;100837.94;4988259;28;102360;-48
2021/09/20 10:45:58;;;;;;;0.70;0.70;;;;;;;20.45;69.04;100834.00;4990884;28;102811;-46
2021/09/20 10:48:41;;;;;;;0.95;0.82;;;;;;;20.43;69.12;100837.13;4986114;28;103938;-48
2021/09/20 10:51:26;;;;;;;1.38;1.00;;;;;;;20.44;69.18;100832.41;4986613;28;102339;-46
2021/09/20 10:54:16;;;;;;;1.00;0.90;;;;;;;20.43;69.28;100836.31;4983147;28;102371;-48
2021/09/20 10:56:44;;;;;;;1.15;1.00;;;;;;;20.43;69.23;100836.31;4987136;28;102628;-48
2021/09/20 10:59:18;;;;;;;5.97;1.13;;;;;;;20.43;69.26;100841.84;4985672;28;103879;-48
2021/09/20 11:01:55;;;;;;;0.70;0.65;;;;;;;20.42;69.14;100837.47;4989269;28;102295;-49
2021/09/20 11:04:28;;;;;;;0.70;0.70;;;;;;;20.43;69.30;100845.41;4976442;28;102760;-49
2021/09/20 11:07:07;;;;;;;0.93;0.90;;;;;;;20.42;69.14;100840.25;4982620;28;102425;-47
2021/09/20 11:09:44;;;;;;;0.80;0.80;;;;;;;20.40;69.30;100835.84;4982610;28;107640;-48
2021/09/20 11:12:13;;;;;;;1.27;0.88;;;;;;;20.42;69.28;100845.78;4986189;28;102680;-48
2021/09/20 11:14:45;;;;;;;1.38;0.90;;;;;;;20.41;69.30;100839.41;4980509;28;102438;-49
2021/09/20 11:17:44;;;;;;;1.08;1.00;;;;;;;20.40;69.45;100844.13;4972961;28;102747;-48
2021/09/20 11:20:18;;;;;;;2.78;1.05;;;;;;;20.40;69.38;100835.84;4983179;28;103693;-48
2021/09/20 11:22:48;;;;;;;0.85;0.82;;;;;;;20.40;69.34;100844.13;4981631;28;102994;-48